Time;durP1;ratioP1;P1;durP2;ratioP2;P2;SDS_P1;SDS_P2;PMS_P1;PMS_P2;Temp;Humidity;BMP_temperature;BMP_pressure;BME280_temperature;BME280_humidity;BME280_pressure;Samples;Min_cycle;Max_cycle;Signal;HPM_P1;HPM_P2
2022/06/29 05:51:40;;;;;;;;;12.00;10.50;;;;;21.87;46.37;101160.72;5092931;27;45544;-85
2022/06/29 05:54:06;;;;;;;;;9.50;9.50;;;;;21.94;47.16;101158.22;5080467;27;45667;-85
2022/06/29 05:56:31;;;;;;;;;7.33;7.33;;;;;22.14;46.72;101177.94;5079012;27;45960;-85
2022/06/29 05:58:56;;;;;;;;;6.33;6.33;;;;;22.38;46.77;101180.13;5081818;27;45397;-84
2022/06/29 06:01:22;;;;;;;;;7.00;6.00;;;;;22.66;46.58;101170.28;5089081;27;45451;-85
2022/06/29 06:03:47;;;;;;;;;10.00;7.00;;;;;22.96;45.99;101158.25;5078787;27;45454;-84
2022/06/29 06:06:12;;;;;;;;;7.33;7.33;;;;;23.26;45.12;101158.03;5077752;27;45787;-83
2022/06/29 06:08:38;;;;;;;;;8.00;8.00;;;;;23.51;44.87;101156.34;5087423;27;53214;-83
2022/06/29 06:11:03;;;;;;;;;6.33;6.33;;;;;23.76;44.79;101163.81;5087004;27;45313;-84
2022/06/29 06:13:28;;;;;;;;;6.33;5.00;;;;;24.01;44.22;101159.38;5084757;27;45501;-82
2022/06/29 06:15:54;;;;;;;;;5.33;5.33;;;;;24.24;43.65;101158.00;5088458;27;45557;-82
2022/06/29 06:18:19;;;;;;;;;5.67;5.00;;;;;24.43;43.10;101167.72;5081397;27;45781;-82
2022/06/29 06:20:44;;;;;;;;;5.33;4.67;;;;;24.57;42.72;101161.66;5076252;27;48271;-83
2022/06/29 06:23:10;;;;;;;;;6.00;6.00;;;;;24.72;42.40;101166.44;5089822;27;45725;-85
2022/06/29 06:25:35;;;;;;;;;5.67;5.67;;;;;24.86;42.46;101164.97;5086257;27;45383;-85
2022/06/29 06:28:00;;;;;;;;;7.00;7.00;;;;;24.99;41.96;101164.47;5082556;27;49430;-81
2022/06/29 06:30:27;;;;;;;;;4.67;4.67;;;;;25.12;41.39;101174.84;5081648;27;52590;-87
2022/06/29 06:32:52;;;;;;;;;7.00;4.00;;;;;25.24;41.26;101181.66;5084352;27;45369;-85
2022/06/29 06:35:19;;;;;;;;;3.67;3.67;;;;;25.36;41.10;101179.44;5085875;27;45386;-83
2022/06/29 06:37:44;;;;;;;;;5.67;5.00;;;;;25.48;40.77;101173.66;5087402;27;45503;-88
2022/06/29 06:42:54;;;;;;;;;4.00;4.00;;;;;25.63;40.76;101174.66;5077807;27;54498;-79
2022/06/29 06:45:19;;;;;;;;;3.00;2.67;;;;;25.70;40.17;101163.97;5086127;27;51147;-80
2022/06/29 06:47:45;;;;;;;;;4.00;4.00;;;;;25.78;40.31;101163.09;5082155;27;45402;-80
2022/06/29 06:50:10;;;;;;;;;3.33;3.33;;;;;25.86;40.00;101164.94;5085985;27;45382;-80
2022/06/29 06:52:35;;;;;;;;;2.67;2.67;;;;;25.95;40.01;101158.44;5076609;27;45438;-82
2022/06/29 06:55:01;;;;;;;;;3.00;3.00;;;;;26.00;39.45;101156.03;5080465;27;46178;-80
2022/06/29 06:57:26;;;;;;;;;3.00;2.00;;;;;26.08;39.08;101165.22;5075383;27;45418;-87
2022/06/29 06:59:53;;;;;;;;;4.33;3.00;;;;;26.13;39.29;101157.38;5083203;27;52670;-87
2022/06/29 07:02:21;;;;;;;;;2.33;2.33;;;;;26.20;38.93;101158.38;5075498;27;45533;-83
2022/06/29 07:04:46;;;;;;;;;3.00;3.00;;;;;26.24;39.32;101165.13;5066994;28;45444;-80
2022/06/29 07:07:13;;;;;;;;;2.00;2.00;;;;;26.31;39.18;101160.72;5070597;28;45605;-80
2022/06/29 07:09:38;;;;;;;;;5.00;3.33;;;;;26.36;39.61;101157.47;5070205;28;45840;-80
2022/06/29 07:12:04;;;;;;;;;3.00;3.00;;;;;26.45;39.39;101158.28;5069890;27;45459;-80
2022/06/29 07:14:30;;;;;;;;;3.00;3.00;;;;;26.52;39.60;101158.44;5072624;28;45455;-81
2022/06/29 07:16:56;;;;;;;;;4.00;2.67;;;;;26.58;39.61;101158.53;5071091;27;45548;-79
2022/06/29 07:19:21;;;;;;;;;5.00;4.00;;;;;26.65;39.66;101161.38;5063441;27;45547;-80
2022/06/29 07:21:46;;;;;;;;;4.67;4.00;;;;;26.70;39.44;101156.25;5067386;28;45892;-80
2022/06/29 07:24:12;;;;;;;;;5.00;5.00;;;;;26.77;39.38;101153.66;5073138;27;45818;-81
2022/06/29 07:26:37;;;;;;;;;5.67;4.00;;;;;26.82;39.37;101148.50;5062566;28;53606;-84
2022/06/29 07:29:02;;;;;;;;;3.00;3.00;;;;;26.88;39.31;101155.09;5069830;28;46106;-81
2022/06/29 07:31:28;;;;;;;;;4.00;4.00;;;;;26.93;39.81;101157.31;5076422;27;45412;-77
2022/06/29 07:33:53;;;;;;;;;3.67;3.67;;;;;26.97;39.76;101155.91;5066542;27;45343;-76
2022/06/29 07:36:18;;;;;;;;;2.00;2.00;;;;;27.03;39.82;101152.50;5069994;27;45319;-76
2022/06/29 07:38:44;;;;;;;;;3.33;3.33;;;;;27.09;39.82;101156.34;5071561;28;45969;-76
2022/06/29 07:41:09;;;;;;;;;3.67;3.67;;;;;27.14;39.18;101153.91;5069550;28;50304;-77
2022/06/29 07:43:34;;;;;;;;;4.33;4.33;;;;;27.20;39.26;101150.47;5068985;28;45331;-77
2022/06/29 07:46:00;;;;;;;;;4.00;4.00;;;;;27.24;39.32;101153.66;5063269;27;45541;-81
2022/06/29 07:48:25;;;;;;;;;3.33;3.33;;;;;27.29;39.51;101150.38;5066124;28;46123;-79
2022/06/29 07:50:51;;;;;;;;;5.67;4.33;;;;;27.36;38.81;101146.75;5068882;27;48003;-80
2022/06/29 07:53:17;;;;;;;;;7.33;6.00;;;;;27.43;38.15;101143.28;5068010;27;45656;-80
2022/06/29 07:55:44;;;;;;;;;4.33;4.00;;;;;27.46;38.12;101148.38;5063484;27;45395;-80
2022/06/29 07:58:16;;;;;;;;;3.67;3.67;;;;;27.48;38.68;101147.16;5064708;27;46349;-79
2022/06/29 08:00:42;;;;;;;;;5.00;3.00;;;;;27.48;38.25;101149.03;5066908;27;45587;-79
2022/06/29 08:03:09;;;;;;;;;4.00;4.00;;;;;27.48;38.47;101147.16;5063688;28;45502;-80
2022/06/29 08:05:35;;;;;;;;;4.00;3.00;;;;;27.45;37.94;101142.06;5067074;27;45525;-79
2022/06/29 08:08:01;;;;;;;;;3.67;3.67;;;;;27.46;37.75;101143.75;5059576;28;45460;-80
2022/06/29 08:10:27;;;;;;;;;6.33;4.33;;;;;27.48;38.26;101140.84;5071473;28;45873;-79
2022/06/29 08:12:53;;;;;;;;;4.00;3.00;;;;;27.49;38.51;101147.97;5061332;28;45409;-77
2022/06/29 08:15:19;;;;;;;;;3.33;3.33;;;;;27.49;37.57;101139.81;5065781;27;45477;-77
2022/06/29 08:17:45;;;;;;;;;4.00;2.33;;;;;27.50;38.19;101155.13;5067533;27;55616;-76
2022/06/29 08:20:11;;;;;;;;;3.00;1.67;;;;;27.52;38.42;101150.34;5070960;28;45419;-76
2022/06/29 08:22:36;;;;;;;;;3.67;3.67;;;;;27.56;38.36;101150.81;5069696;28;45377;-75
2022/06/29 08:25:02;;;;;;;;;5.33;3.33;;;;;27.57;38.31;101144.31;5066496;28;45489;-76
2022/06/29 08:27:29;;;;;;;;;4.33;4.00;;;;;27.58;38.22;101138.69;5057244;27;45426;-78
2022/06/29 08:29:54;;;;;;;;;3.33;1.00;;;;;27.59;38.27;101134.91;5066246;27;45454;-81
2022/06/29 08:32:20;;;;;;;;;3.00;3.00;;;;;27.61;37.53;101151.13;5075892;27;45560;-79
2022/06/29 08:34:45;;;;;;;;;2.00;2.00;;;;;27.64;38.26;101139.88;5067442;28;45887;-78
2022/06/29 08:37:11;;;;;;;;;4.00;4.00;;;;;27.67;38.06;101130.47;5063983;28;45426;-78
2022/06/29 08:39:36;;;;;;;;;3.33;3.33;;;;;27.70;37.56;101132.78;5064959;28;45339;-77
2022/06/29 08:42:05;;;;;;;;;4.67;3.00;;;;;27.73;37.86;101132.44;5067744;27;45337;-76
2022/06/29 08:44:36;;;;;;;;;3.00;3.00;;;;;27.75;37.46;101130.38;5067094;28;45492;-76
2022/06/29 08:47:06;;;;;;;;;4.00;4.00;;;;;27.78;37.43;101135.44;5070339;27;47208;-76
2022/06/29 08:49:34;;;;;;;;;2.33;2.33;;;;;27.80;37.35;101127.94;5068226;28;45471;-76
2022/06/29 08:52:03;;;;;;;;;3.00;3.00;;;;;27.83;37.63;101126.72;5058183;28;45734;-76
2022/06/29 08:54:31;;;;;;;;;5.67;3.33;;;;;27.84;37.53;101125.66;5065781;27;45878;-76
2022/06/29 08:56:58;;;;;;;;;5.00;5.00;;;;;27.87;37.29;101134.31;5066918;28;47043;-77
2022/06/29 08:59:23;;;;;;;;;2.67;2.67;;;;;27.91;37.42;101133.94;5071514;28;45389;-77
2022/06/29 09:01:50;;;;;;;;;4.67;3.67;;;;;27.93;37.11;101129.13;5068979;27;46336;-81
2022/06/29 09:04:16;;;;;;;;;2.67;2.67;;;;;27.94;36.87;101130.81;5067010;27;45903;-79
2022/06/29 09:06:41;;;;;;;;;4.33;3.00;;;;;27.94;37.01;101133.53;5068570;27;46951;-80
2022/06/29 09:09:06;;;;;;;;;2.00;2.00;;;;;27.93;37.17;101135.44;5060836;28;45596;-80
2022/06/29 09:11:32;;;;;;;;;3.67;3.00;;;;;27.94;36.77;101137.13;5069241;27;45520;-81
2022/06/29 09:14:10;;;;;;;;;3.00;3.00;;;;;27.95;37.41;101135.25;5067554;28;45617;-80
2022/06/29 09:16:55;;;;;;;;;3.00;3.00;;;;;27.96;37.55;101136.94;5069177;28;46221;-78
2022/06/29 09:19:43;;;;;;;;;3.67;3.00;;;;;27.96;37.60;101137.78;5069519;28;45447;-76
2022/06/29 09:22:09;;;;;;;;;2.67;2.67;;;;;27.97;37.53;101135.91;5066997;28;45664;-75
2022/06/29 09:24:35;;;;;;;;;2.00;2.00;;;;;27.97;37.39;101139.50;5067271;28;45579;-75
2022/06/29 09:27:05;;;;;;;;;4.00;2.67;;;;;27.98;36.61;101141.19;5065614;27;48042;-76
2022/06/29 09:29:33;;;;;;;;;2.00;1.00;;;;;27.98;36.94;101141.19;5069040;27;45387;-78
2022/06/29 09:32:04;;;;;;;;;2.67;2.67;;;;;27.99;37.36;101142.00;5062003;27;45650;-80
2022/06/29 09:34:37;;;;;;;;;3.00;3.00;;;;;27.98;36.71;101143.03;5060727;27;45557;-79
2022/06/29 09:37:05;;;;;;;;;2.00;2.00;;;;;27.96;37.30;101135.03;5059016;28;46103;-77
2022/06/29 09:39:50;;;;;;;;;2.00;2.00;;;;;27.98;37.36;101143.91;5054885;27;45471;-77
2022/06/29 09:42:16;;;;;;;;;4.00;3.00;;;;;27.99;37.18;101134.69;5058923;28;45466;-77
2022/06/29 09:44:43;;;;;;;;;3.00;3.00;;;;;28.00;37.34;101146.44;5060808;28;45503;-77
2022/06/29 09:47:16;;;;;;;;;4.67;3.00;;;;;28.03;37.23;101154.22;5053053;28;46153;-76
2022/06/29 09:49:48;;;;;;;;;3.00;3.00;;;;;28.02;36.24;101145.22;5058979;28;45514;-76
2022/06/29 09:52:15;;;;;;;;;4.33;3.00;;;;;28.02;35.91;101156.13;5061698;27;45515;-76
2022/06/29 09:54:52;;;;;;;;;2.00;2.00;;;;;28.02;35.78;101144.38;5062252;28;45460;-87
2022/06/29 09:57:20;;;;;;;;;2.33;2.00;;;;;27.99;36.63;101145.59;5058115;27;47033;-88
2022/06/29 10:02:43;;;;;;;;;4.00;3.33;;;;;27.97;36.39;101147.69;5067978;27;45504;-78
2022/06/29 10:05:17;;;;;;;;;3.00;3.00;;;;;28.02;37.05;101138.91;5066912;27;45477;-78
2022/06/29 10:07:48;;;;;;;;;3.00;3.00;;;;;28.04;36.35;101136.84;5063391;27;54070;-79
2022/06/29 10:10:15;;;;;;;;;3.00;3.00;;;;;28.07;37.11;101132.91;5061998;28;45491;-79
2022/06/29 10:16:07;;;;;;;;;3.67;3.00;;;;;28.14;36.97;101128.34;5059901;28;47376;-79
2022/06/29 10:18:45;;;;;;;;;5.00;4.00;;;;;28.17;36.83;101117.06;5062373;27;45750;-79
2022/06/29 10:21:17;;;;;;;;;3.00;1.67;;;;;28.20;37.35;101130.31;5061252;27;45962;-81
2022/06/29 10:23:53;;;;;;;;;3.00;2.00;;;;;28.22;36.70;101120.06;5060912;28;45698;-80
2022/06/29 10:26:32;;;;;;;;;3.33;3.33;;;;;28.27;36.49;101120.38;5066280;27;45451;-77
2022/06/29 10:29:09;;;;;;;;;4.00;2.00;;;;;28.30;36.55;101119.13;5062726;28;46389;-76
2022/06/29 10:31:56;;;;;;;;;3.00;3.00;;;;;28.31;35.77;101118.09;5066878;27;45411;-76
2022/06/29 10:34:31;;;;;;;;;3.33;2.00;;;;;28.32;35.88;101116.22;5068377;28;45538;-77
2022/06/29 10:37:15;;;;;;;;;3.00;3.00;;;;;28.31;36.49;101109.91;5066470;27;46020;-76
2022/06/29 10:39:49;;;;;;;;;3.67;3.33;;;;;28.31;35.94;101109.91;5063470;27;45842;-76
2022/06/29 10:45:06;;;;;;;;;5.00;3.00;;;;;28.29;35.85;101098.34;5070278;28;45456;-78
2022/06/29 10:47:32;;;;;;;;;3.00;3.00;;;;;28.30;35.76;101102.75;5071959;27;46097;-79
2022/06/29 10:50:13;;;;;;;;;2.00;2.00;;;;;28.30;36.45;101096.44;5065383;27;46515;-78
2022/06/29 10:52:39;;;;;;;;;3.00;3.00;;;;;28.30;35.95;101088.25;5060521;27;45539;-75
2022/06/29 10:55:08;;;;;;;;;2.33;2.33;;;;;28.30;36.17;101096.44;5055518;27;45643;-77
2022/06/29 10:57:38;;;;;;;;;2.00;2.00;;;;;28.31;36.13;101101.72;5060036;27;45413;-88
2022/06/29 11:00:09;;;;;;;;;3.67;2.00;;;;;28.30;36.08;101094.56;5062001;27;46143;-78
2022/06/29 11:02:38;;;;;;;;;3.00;2.00;;;;;28.29;36.51;101095.63;5064729;27;45577;-78
2022/06/29 11:05:04;;;;;;;;;1.67;1.67;;;;;28.29;36.10;101087.44;5069324;27;45567;-76
2022/06/29 11:12:58;;;;;;;;;2.33;2.33;;;;;28.34;35.28;101082.25;5067703;27;45767;-80
2022/06/29 11:15:42;;;;;;;;;2.33;1.67;;;;;28.35;34.83;101072.16;5063801;27;47160;-80
2022/06/29 11:18:07;;;;;;;;;2.33;2.33;;;;;28.35;34.61;101078.47;5066551;27;47777;-80
2022/06/29 11:20:32;;;;;;;;;2.00;2.00;;;;;28.35;34.34;101075.72;5059010;27;47671;-79
2022/06/29 11:22:58;;;;;;;;;2.00;2.00;;;;;28.38;34.15;101074.50;5066534;28;45421;-79
2022/06/29 11:25:34;;;;;;;;;1.67;1.67;;;;;28.39;34.49;101081.66;5073743;27;45446;-79
2022/06/29 11:27:59;;;;;;;;;2.67;2.00;;;;;28.39;34.15;101068.00;5063135;27;46067;-79
2022/06/29 11:30:25;;;;;;;;;5.00;3.00;;;;;28.38;34.72;101072.63;5067220;27;46177;-79
2022/06/29 11:32:50;;;;;;;;;2.00;2.00;;;;;28.37;34.02;101068.19;5067445;27;45466;-78
2022/06/29 11:35:18;;;;;;;;;3.33;2.00;;;;;28.39;34.00;101077.03;5059808;27;51237;-79
2022/06/29 11:37:48;;;;;;;;;4.00;2.67;;;;;28.39;33.53;101063.41;5062329;28;45276;-79
2022/06/29 11:40:14;;;;;;;;;3.00;2.00;;;;;28.40;34.07;101067.81;5073788;27;45434;-78
2022/06/29 11:45:35;;;;;;;;;1.00;1.00;;;;;28.43;33.96;101061.13;5060822;27;45800;-79
2022/06/29 11:48:10;;;;;;;;;3.00;3.00;;;;;28.44;33.67;101053.78;5060172;27;45831;-79
2022/06/29 11:50:44;;;;;;;;;4.00;2.00;;;;;28.41;33.74;101060.47;5056336;27;46632;-80
2022/06/29 11:53:10;;;;;;;;;3.00;3.00;;;;;28.41;33.14;101053.13;5057495;27;45437;-78
2022/06/29 11:55:40;;;;;;;;;7.00;4.00;;;;;28.39;33.63;101049.75;5066863;27;45349;-80
2022/06/29 11:58:08;;;;;;;;;3.67;3.67;;;;;28.41;33.91;101046.81;5065012;27;47301;-78
2022/06/29 12:00:37;;;;;;;;;4.67;4.00;;;;;28.41;33.36;101046.81;5062862;28;46358;-78
2022/06/29 12:03:03;;;;;;;;;2.00;2.00;;;;;28.41;34.00;101034.00;5061504;27;54124;-78
2022/06/29 12:05:28;;;;;;;;;3.00;3.00;;;;;28.41;33.97;101035.91;5062275;28;45579;-76
2022/06/29 12:07:54;;;;;;;;;4.00;2.33;;;;;28.41;33.98;101035.91;5057876;28;45596;-77
2022/06/29 12:10:19;;;;;;;;;6.00;6.00;;;;;28.38;34.10;101037.16;5069950;28;46246;-76
2022/06/29 12:12:44;;;;;;;;;2.00;2.00;;;;;28.36;33.62;101022.00;5065643;27;45499;-76
2022/06/29 12:15:10;;;;;;;;;3.67;3.33;;;;;28.35;34.31;101021.16;5064010;28;45449;-76
2022/06/29 12:17:37;;;;;;;;;4.00;2.33;;;;;28.37;33.96;101026.41;5059937;28;45487;-76
2022/06/29 12:20:03;;;;;;;;;2.67;2.67;;;;;28.38;34.19;101028.97;5067785;27;45686;-77
2022/06/29 12:22:29;;;;;;;;;3.67;2.00;;;;;28.38;34.16;101020.75;5061874;28;45575;-77
2022/06/29 12:24:54;;;;;;;;;4.00;4.00;;;;;28.40;34.22;101015.94;5064181;28;45839;-78
2022/06/29 12:27:19;;;;;;;;;4.00;4.00;;;;;28.43;34.83;101014.72;5059974;28;50283;-77
2022/06/29 12:29:44;;;;;;;;;2.00;2.00;;;;;28.45;34.36;101007.19;5062572;27;47353;-77
2022/06/29 12:32:10;;;;;;;;;4.00;2.00;;;;;28.47;34.56;101002.34;5069502;28;54895;-77
2022/06/29 12:34:35;;;;;;;;;2.33;2.00;;;;;28.52;34.29;101004.50;5067167;27;45378;-76
2022/06/29 12:37:03;;;;;;;;;3.00;3.00;;;;;28.55;35.16;100998.66;5069467;27;45331;-76
2022/06/29 12:39:28;;;;;;;;;3.00;3.00;;;;;28.58;34.58;101006.44;5066439;28;47373;-77
2022/06/29 12:41:54;;;;;;;;;1.00;1.00;;;;;28.59;34.96;100996.34;5068642;27;46144;-76
2022/06/29 12:44:19;;;;;;;;;2.00;2.00;;;;;28.62;35.36;100990.50;5063135;27;45406;-79
2022/06/29 12:46:44;;;;;;;;;3.00;3.00;;;;;28.66;35.17;100989.09;5072088;28;45393;-76
2022/06/29 12:49:18;;;;;;;;;3.00;3.00;;;;;28.69;34.57;100988.66;5070778;28;48023;-77
2022/06/29 12:51:44;;;;;;;;;3.67;3.00;;;;;28.70;34.73;100994.97;5063960;28;47166;-75
2022/06/29 12:54:09;;;;;;;;;3.67;2.33;;;;;28.68;35.13;100986.97;5069051;28;45615;-76
2022/06/29 12:56:34;;;;;;;;;3.00;3.00;;;;;28.68;35.48;100986.97;5072791;27;45481;-75
2022/06/29 12:58:59;;;;;;;;;2.00;2.00;;;;;28.67;35.38;100986.16;5069182;28;46009;-76
2022/06/29 13:01:25;;;;;;;;;3.00;3.00;;;;;28.69;35.46;100988.66;5069988;28;56317;-76
2022/06/29 13:03:50;;;;;;;;;2.33;2.33;;;;;28.70;35.83;100990.38;5071037;28;45806;-76
2022/06/29 13:06:16;;;;;;;;;2.67;2.00;;;;;28.65;35.55;100974.56;5066177;28;45470;-76
2022/06/29 13:08:41;;;;;;;;;2.67;2.67;;;;;28.70;35.60;100987.66;5069532;28;46849;-77
2022/06/29 13:11:07;;;;;;;;;2.00;2.00;;;;;28.73;35.79;100978.22;5069229;28;45460;-75
2022/06/29 13:13:32;;;;;;;;;4.00;4.00;;;;;28.77;36.18;100976.78;5062284;28;45918;-75
2022/06/29 13:15:57;;;;;;;;;4.00;3.00;;;;;28.78;36.24;100976.56;5066500;28;51161;-75
2022/06/29 13:18:23;;;;;;;;;3.67;2.33;;;;;28.81;36.22;100978.03;5059609;28;56331;-75
2022/06/29 13:20:48;;;;;;;;;3.00;1.33;;;;;28.83;35.68;100970.50;5058916;28;45485;-75
2022/06/29 13:23:14;;;;;;;;;3.00;1.33;;;;;28.86;35.58;100966.53;5067101;28;45421;-76
2022/06/29 13:25:40;;;;;;;;;4.67;1.67;;;;;28.88;36.50;100965.31;5070968;27;49167;-76
2022/06/29 13:28:05;;;;;;;;;2.00;2.00;;;;;28.89;35.90;100957.97;5063575;28;46181;-75
2022/06/29 13:30:31;;;;;;;;;1.33;1.33;;;;;28.91;35.94;100958.63;5060196;28;45589;-76
2022/06/29 13:32:56;;;;;;;;;2.67;2.67;;;;;28.91;36.15;100953.16;5056496;28;45538;-75
2022/06/29 13:35:21;;;;;;;;;3.33;3.33;;;;;28.92;36.16;100952.97;5069907;28;45446;-76
2022/06/29 13:37:47;;;;;;;;;1.67;1.67;;;;;28.95;36.06;100948.13;5065096;27;46254;-76
2022/06/29 13:40:13;;;;;;;;;5.33;3.33;;;;;28.96;36.61;100941.59;5061557;27;45469;-76
2022/06/29 13:42:39;;;;;;;;;2.67;2.67;;;;;28.96;37.02;100945.19;5064678;28;45482;-76
2022/06/29 13:45:05;;;;;;;;;1.00;1.00;;;;;28.98;36.65;100951.28;5067122;28;45829;-77
2022/06/29 13:47:30;;;;;;;;;2.33;2.33;;;;;29.01;36.70;100952.81;5070817;28;46294;-76
2022/06/29 13:49:55;;;;;;;;;2.00;2.00;;;;;29.03;36.55;100945.25;5064735;27;45524;-79
2022/06/29 13:52:20;;;;;;;;;3.00;2.00;;;;;29.07;36.91;100949.25;5068916;27;45379;-79
2022/06/29 13:54:46;;;;;;;;;2.00;2.00;;;;;29.08;36.43;100939.16;5058690;28;57312;-79
2022/06/29 13:57:11;;;;;;;;;2.00;2.00;;;;;28.62;36.45;100930.44;5062321;28;46008;-77
2022/06/29 13:59:37;;;;;;;;;2.00;2.00;;;;;28.05;37.73;100933.06;5062724;27;45736;-76
2022/06/29 14:02:02;;;;;;;;;2.00;2.00;;;;;27.58;38.53;100923.31;5057871;27;45536;-76
2022/06/29 14:04:28;;;;;;;;;1.33;1.33;;;;;27.21;39.29;100919.72;5069078;28;45456;-76
2022/06/29 14:06:54;;;;;;;;;1.33;1.33;;;;;26.94;39.50;100916.63;5056345;27;46189;-76
2022/06/29 14:09:20;;;;;;;;;2.00;2.00;;;;;26.74;40.25;100919.03;5063355;28;45389;-76
2022/06/29 14:11:46;;;;;;;;;2.00;2.00;;;;;26.56;40.16;100915.63;5066366;27;45395;-78
2022/06/29 14:14:11;;;;;;;;;2.00;1.67;;;;;26.44;41.26;100914.34;5073446;27;45822;-77
2022/06/29 14:16:37;;;;;;;;;1.33;1.33;;;;;26.36;41.25;100914.47;5074736;28;45370;-77
2022/06/29 14:19:02;;;;;;;;;2.00;2.00;;;;;26.26;41.25;100907.41;5071282;28;45411;-77
2022/06/29 14:21:28;;;;;;;;;2.00;2.00;;;;;26.20;42.03;100907.25;5069739;28;45798;-77
2022/06/29 14:23:53;;;;;;;;;2.67;1.00;;;;;26.14;42.26;100906.09;5070939;28;45780;-81
2022/06/29 14:26:19;;;;;;;;;2.00;2.00;;;;;26.09;42.41;100895.78;5071102;28;45442;-75
2022/06/29 14:28:44;;;;;;;;;1.00;1.00;;;;;26.05;42.71;100899.88;5064692;27;45461;-79
2022/06/29 14:31:09;;;;;;;;;2.00;2.00;;;;;26.01;42.60;100895.81;5072361;28;45640;-76
2022/06/29 14:33:35;;;;;;;;;4.00;1.67;;;;;25.98;42.75;100888.03;5072197;28;45367;-76
2022/06/29 14:36:01;;;;;;;;;1.33;1.00;;;;;25.94;43.15;100884.00;5069780;27;45554;-80
2022/06/29 14:38:26;;;;;;;;;2.00;2.00;;;;;25.92;43.56;100885.00;5069192;28;46033;-78
2022/06/29 14:40:51;;;;;;;;;1.00;1.00;;;;;25.92;43.70;100879.56;5062445;28;45281;-77
2022/06/29 14:43:17;;;;;;;;;3.67;3.00;;;;;25.92;43.60;100885.00;5062353;27;45577;-76
2022/06/29 14:45:43;;;;;;;;;1.00;1.00;;;;;25.91;44.02;100880.59;5067519;27;47073;-79
2022/06/29 14:48:08;;;;;;;;;2.67;2.67;;;;;25.91;44.65;100882.47;5069511;28;45476;-79
2022/06/29 14:50:34;;;;;;;;;1.00;1.00;;;;;25.90;44.51;100884.34;5071761;28;45398;-77
2022/06/29 14:53:00;;;;;;;;;2.00;2.00;;;;;25.89;44.63;100876.38;5074314;27;45392;-78
2022/06/29 14:55:26;;;;;;;;;2.00;2.00;;;;;25.87;44.59;100876.53;5072494;28;47148;-77
2022/06/29 14:57:52;;;;;;;;;1.67;1.67;;;;;25.88;44.87;100877.41;5073304;27;45863;-79
2022/06/29 15:00:17;;;;;;;;;2.00;2.00;;;;;25.86;44.98;100872.13;5070047;27;45368;-76
2022/06/29 15:02:42;;;;;;;;;2.00;2.00;;;;;25.87;45.55;100873.00;5069749;28;45461;-80
2022/06/29 15:05:08;;;;;;;;;1.00;1.00;;;;;25.86;45.67;100865.84;5066008;28;46385;-75
2022/06/29 15:07:33;;;;;;;;;1.00;1.00;;;;;25.96;44.31;100863.75;5072090;28;45336;-75
2022/06/29 19:03:05;;;;;;;;;2.00;2.00;;;;;23.61;47.12;100817.59;5095334;27;45671;-76
2022/06/29 19:05:33;;;;;;;;;4.33;3.00;;;;;23.74;47.41;100816.25;5096947;27;45488;-76
2022/06/29 19:07:59;;;;;;;;;4.00;3.00;;;;;23.92;47.29;100824.22;5101795;27;45542;-75
2022/06/29 19:10:24;;;;;;;;;2.67;2.67;;;;;24.13;46.92;100831.88;5110565;27;45346;-75
2022/06/29 19:12:49;;;;;;;;;2.33;2.00;;;;;24.37;46.64;100827.44;5108299;27;45476;-75
2022/06/29 19:15:15;;;;;;;;;3.67;2.00;;;;;24.63;46.45;100842.63;5109980;27;45747;-74
2022/06/29 19:17:41;;;;;;;;;3.67;3.00;;;;;24.92;46.35;100849.34;5099309;27;45323;-74
2022/06/29 19:20:06;;;;;;;;;2.00;2.00;;;;;25.19;46.26;100854.50;5102187;27;45529;-75
2022/06/29 19:22:32;;;;;;;;;2.33;2.33;;;;;25.43;45.98;100853.56;5107756;27;46405;-74
2022/06/29 19:24:58;;;;;;;;;1.00;1.00;;;;;25.65;45.22;100860.06;5104753;27;45599;-77
2022/06/29 19:27:23;;;;;;;;;2.00;2.00;;;;;25.88;44.94;100844.78;5109436;27;45504;-76
2022/06/29 19:29:49;;;;;;;;;2.00;2.00;;;;;26.11;44.94;100846.63;5105453;27;45655;-74
2022/06/29 19:32:14;;;;;;;;;2.67;2.00;;;;;26.30;44.34;100846.16;5094663;27;45532;-74
2022/06/29 19:34:41;;;;;;;;;1.33;1.33;;;;;26.49;43.57;100853.94;5102411;27;45423;-74
2022/06/29 19:37:08;;;;;;;;;2.00;2.00;;;;;26.65;43.63;100864.66;5106094;27;45449;-74
2022/06/29 19:39:33;;;;;;;;;3.00;3.00;;;;;26.81;43.24;100866.34;5103704;27;45643;-74
2022/06/29 19:41:59;;;;;;;;;2.00;2.00;;;;;26.96;43.15;100871.84;5097775;27;59456;-74
2022/06/29 19:44:24;;;;;;;;;2.33;2.33;;;;;27.09;42.47;100879.34;5108869;27;45705;-75
2022/06/29 19:46:49;;;;;;;;;1.33;1.33;;;;;27.21;42.64;100884.28;5104161;27;46295;-74
2022/06/29 19:49:15;;;;;;;;;3.00;2.00;;;;;27.32;41.92;100900.16;5108181;27;50951;-75
2022/06/29 19:51:40;;;;;;;;;2.00;2.00;;;;;27.46;41.85;100919.41;5106187;27;46985;-75
2022/06/29 19:54:05;;;;;;;;;4.00;3.00;;;;;27.56;41.47;100928.13;5107700;27;45410;-75
2022/06/29 19:56:31;;;;;;;;;5.00;2.00;;;;;27.67;41.77;100942.31;5107911;27;45930;-75
2022/06/29 19:58:57;;;;;;;;;4.67;2.00;;;;;27.74;41.02;100952.28;5106999;27;45635;-75
2022/06/29 20:01:22;;;;;;;;;2.67;2.00;;;;;27.82;40.78;100962.22;5109303;27;46316;-74
2022/06/29 20:03:48;;;;;;;;;2.67;2.67;;;;;27.89;41.26;100970.47;5107910;27;45573;-75
2022/06/29 20:06:14;;;;;;;;;3.00;2.33;;;;;27.97;41.10;100975.81;5106153;27;45505;-77
2022/06/29 20:08:40;;;;;;;;;2.67;2.67;;;;;28.04;40.38;100975.91;5102352;27;45493;-76
2022/06/29 20:11:08;;;;;;;;;2.00;2.00;;;;;28.06;41.19;100976.53;5109313;27;45575;-76
2022/06/29 20:13:34;;;;;;;;;1.67;1.33;;;;;28.09;41.10;100969.84;5098127;27;45479;-77
